Time;durP1;ratioP1;P1;durP2;ratioP2;P2;SDS_P1;SDS_P2;PMS_P1;PMS_P2;Temp;Humidity;BMP_temperature;BMP_pressure;BME280_temperature;BME280_humidity;BME280_pressure;Samples;Min_cycle;Max_cycle;Signal;HPM_P1;HPM_P2
2022/04/30 00:02:40;;;;;;;15.15;9.85;;;;;;;-139.48;100.00;61774.03;4993569;28;20049;-71
2022/04/30 00:05:25;;;;;;;14.13;10.70;;;;;;;-139.48;100.00;61774.03;4979834;28;20049;-71
2022/04/30 00:08:09;;;;;;;16.85;11.10;;;;;;;-139.48;100.00;61774.03;4979320;28;20057;-70
2022/04/30 00:10:53;;;;;;;19.40;11.63;;;;;;;-139.48;100.00;61774.03;4979405;28;20561;-71
2022/04/30 00:13:38;;;;;;;15.85;11.52;;;;;;;-139.48;100.00;61774.03;4979639;28;20402;-71
2022/04/30 00:16:22;;;;;;;17.75;10.93;;;;;;;-139.48;100.00;61774.03;4994021;28;20568;-70
2022/04/30 00:19:06;;;;;;;15.10;10.60;;;;;;;-139.48;100.00;61774.03;4993959;28;20068;-71
2022/04/30 00:21:51;;;;;;;17.27;11.18;;;;;;;-139.48;100.00;61774.03;4994269;28;20101;-71
2022/04/30 00:24:35;;;;;;;19.33;10.82;;;;;;;-139.48;100.00;61774.03;4979200;28;20136;-71
2022/04/30 00:27:20;;;;;;;23.67;12.65;;;;;;;-139.48;100.00;61774.03;4979578;28;20104;-70
2022/04/30 00:30:04;;;;;;;19.23;12.75;;;;;;;-139.48;100.00;61774.03;4993834;28;20050;-70
2022/04/30 00:32:48;;;;;;;19.67;13.13;;;;;;;-139.48;100.00;61774.03;4994147;28;20053;-71
2022/04/30 00:35:32;;;;;;;22.70;13.60;;;;;;;-139.48;100.00;61774.03;4965400;28;20060;-70
2022/04/30 00:38:16;;;;;;;20.48;13.05;;;;;;;-139.48;100.00;61774.03;4979029;28;20053;-71
2022/04/30 00:40:59;;;;;;;23.73;14.18;;;;;;;-139.48;100.00;61774.03;4965420;28;20418;-71
2022/04/30 00:43:48;;;;;;;26.73;14.27;;;;;;;-139.48;100.00;61774.03;4979415;28;20048;-70
2022/04/30 00:46:32;;;;;;;19.52;14.13;;;;;;;-139.48;100.00;61774.03;4997993;28;20320;-70
2022/04/30 00:49:16;;;;;;;28.33;14.98;;;;;;;-139.48;100.00;61774.03;4969169;28;20517;-71
2022/04/30 00:52:02;;;;;;;23.42;14.90;;;;;;;-139.48;100.00;61774.03;4983064;28;20053;-71
2022/04/30 00:54:49;;;;;;;30.55;15.02;;;;;;;-139.48;100.00;61774.03;4969400;28;20419;-71
2022/04/30 00:57:36;;;;;;;28.55;15.45;;;;;;;-139.48;100.00;61774.03;4983461;28;20406;-71
2022/04/30 01:00:20;;;;;;;22.67;14.32;;;;;;;-139.48;100.00;61774.03;4983161;28;20052;-70
2022/04/30 01:03:04;;;;;;;23.33;14.93;;;;;;;-139.48;100.00;61774.03;4983032;28;20057;-71
2022/04/30 01:05:49;;;;;;;25.48;14.00;;;;;;;-139.48;100.00;61774.03;4969104;28;20053;-70
2022/04/30 01:08:33;;;;;;;23.52;15.32;;;;;;;-139.48;100.00;61774.03;4982741;28;20477;-70
2022/04/30 01:11:17;;;;;;;30.92;15.77;;;;;;;-139.48;100.00;61774.03;4982891;28;20093;-70
2022/04/30 01:14:01;;;;;;;26.13;14.70;;;;;;;-139.48;100.00;61774.03;4969100;28;20124;-71
2022/04/30 01:16:46;;;;;;;26.42;15.10;;;;;;;-139.48;100.00;61774.03;4982624;28;20080;-70
2022/04/30 01:19:33;;;;;;;29.23;16.45;;;;;;;-139.48;100.00;61774.03;4968773;28;20519;-70
2022/04/30 01:22:29;;;;;;;24.58;15.13;;;;;;;-139.48;100.00;61774.03;4983148;28;20053;-71
2022/04/30 01:25:14;;;;;;;33.38;17.15;;;;;;;-139.48;100.00;61774.03;4982386;28;20517;-71
2022/04/30 01:27:59;;;;;;;28.67;15.30;;;;;;;-139.48;100.00;61774.03;4982633;28;20077;-71
2022/04/30 01:30:44;;;;;;;26.20;15.55;;;;;;;-139.48;100.00;61774.03;4982692;28;20138;-71
2022/04/30 01:39:33;;;;;;;28.15;16.75;;;;;;;-139.48;100.00;61774.03;4984728;28;20050;-71
2022/04/30 01:42:18;;;;;;;27.10;15.60;;;;;;;-139.48;100.00;61774.03;4996786;28;20564;-71
2022/04/30 01:45:06;;;;;;;23.77;16.02;;;;;;;-139.48;100.00;61774.03;4996744;28;20112;-71
2022/04/30 01:47:50;;;;;;;27.23;15.95;;;;;;;-139.48;100.00;61774.03;4996907;28;20531;-71
2022/04/30 01:50:35;;;;;;;29.05;17.98;;;;;;;-139.48;100.00;61774.03;5036366;22;20145;-69
2022/04/30 01:53:19;;;;;;;30.08;16.05;;;;;;;-139.48;100.00;61774.03;5016323;28;20129;-69
2022/04/30 01:56:03;;;;;;;33.13;17.67;;;;;;;-139.48;100.00;61774.03;5015632;28;20060;-69
2022/04/30 01:58:48;;;;;;;29.52;17.00;;;;;;;-139.48;100.00;61774.03;5001577;28;20103;-69
2022/04/30 02:01:32;;;;;;;31.08;17.88;;;;;;;-139.48;100.00;61774.03;5001520;28;20180;-69
2022/04/30 02:04:17;;;;;;;36.95;17.92;;;;;;;-139.48;100.00;61774.03;5016360;28;20076;-69
2022/04/30 02:07:01;;;;;;;29.88;18.42;;;;;;;-139.48;100.00;61774.03;4987986;28;20481;-69
2022/04/30 02:09:46;;;;;;;28.75;19.08;;;;;;;-139.48;100.00;61774.03;5001118;28;20049;-69
2022/04/30 02:12:32;;;;;;;30.05;17.63;;;;;;;-139.48;100.00;61774.03;5001179;28;20086;-69
2022/04/30 02:15:16;;;;;;;29.27;18.63;;;;;;;-139.48;100.00;61774.03;4987267;28;20103;-69
2022/04/30 02:18:02;;;;;;;31.05;18.45;;;;;;;-139.48;100.00;61774.03;5015678;28;20096;-69
2022/04/30 02:20:48;;;;;;;28.13;17.13;;;;;;;-139.48;100.00;61774.03;5000730;28;20571;-69
2022/04/30 02:23:33;;;;;;;28.92;17.95;;;;;;;-139.48;100.00;61774.03;5001237;28;20100;-69
2022/04/30 02:26:17;;;;;;;30.02;17.90;;;;;;;-139.48;100.00;61774.03;5000992;28;20049;-69
2022/04/30 02:29:01;;;;;;;;;;;;;;;-139.48;100.00;61774.03;5016553;28;20051;-69
2022/04/30 02:31:45;;;;;;;30.73;17.47;;;;;;;-139.48;100.00;61774.03;5015718;28;19920;-69
2022/04/30 02:34:29;;;;;;;31.08;17.65;;;;;;;-139.48;100.00;61774.03;5000613;28;20560;-69
2022/04/30 02:37:14;;;;;;;30.60;17.40;;;;;;;-139.48;100.00;61774.03;5000473;28;20580;-69
2022/04/30 02:39:58;;;;;;;26.13;18.50;;;;;;;-139.48;100.00;61774.03;5000522;28;20129;-69
2022/04/30 02:42:44;;;;;;;32.75;19.17;;;;;;;-139.48;100.00;61774.03;4986811;28;20053;-69
2022/04/30 02:45:27;;;;;;;29.23;19.70;;;;;;;-139.48;100.00;61774.03;5015561;28;20053;-69
2022/04/30 02:48:13;;;;;;;31.17;19.27;;;;;;;-139.48;100.00;61774.03;5000454;28;20425;-69
2022/04/30 02:51:00;;;;;;;37.28;21.60;;;;;;;-139.48;100.00;61774.03;5000492;28;20516;-69
2022/04/30 02:53:44;;;;;;;33.22;20.95;;;;;;;-139.48;100.00;61774.03;5000508;28;20104;-69
2022/04/30 02:56:28;;;;;;;40.67;23.73;;;;;;;-139.48;100.00;61774.03;5000037;28;20052;-69
2022/04/30 03:02:14;;;;;;;41.45;23.35;;;;;;;-139.48;100.00;61774.03;5002832;28;20524;-69
2022/04/30 03:04:58;;;;;;;42.00;22.27;;;;;;;-139.48;100.00;61774.03;5014820;28;20048;-69
2022/04/30 03:07:43;;;;;;;38.55;23.27;;;;;;;-139.48;100.00;61774.03;5014486;28;20529;-69
2022/04/30 03:10:27;;;;;;;39.72;22.80;;;;;;;-139.48;100.00;61774.03;5000025;28;20132;-69
2022/04/30 03:13:13;;;;;;;38.38;22.83;;;;;;;-139.48;100.00;61774.03;4986245;28;20069;-69
2022/04/30 03:21:41;;;;;;;40.80;24.55;;;;;;;-139.48;100.00;61774.03;4999886;28;20129;-69
2022/04/30 03:22:07;;;;;;;45.42;25.65;;;;;;;-139.48;100.00;61774.03;5002560;28;20108;-70
2022/04/30 03:24:51;;;;;;;38.20;23.10;;;;;;;-139.48;100.00;61774.03;5014997;28;20258;-69
2022/04/30 03:27:35;;;;;;;41.90;23.90;;;;;;;-139.48;100.00;61774.03;5014318;28;20421;-69
2022/04/30 03:30:19;;;;;;;38.15;23.92;;;;;;;-139.48;100.00;61774.03;5014460;28;20117;-69
2022/04/30 03:33:03;;;;;;;42.35;24.73;;;;;;;-139.48;100.00;61774.03;4999618;28;20184;-69
2022/04/30 03:35:46;;;;;;;42.40;24.95;;;;;;;-139.48;100.00;61774.03;4999274;28;20048;-69
2022/04/30 03:38:30;;;;;;;40.03;24.10;;;;;;;-139.48;100.00;61774.03;4999165;28;20521;-69
2022/04/30 03:41:15;;;;;;;37.97;23.92;;;;;;;-139.48;100.00;61774.03;4999089;28;20092;-69
2022/04/30 03:44:00;;;;;;;39.05;24.42;;;;;;;-139.48;100.00;61774.03;4999537;28;20133;-69
2022/04/30 03:46:45;;;;;;;39.13;24.17;;;;;;;-139.48;100.00;61774.03;4985726;28;20048;-69
2022/04/30 03:49:28;;;;;;;39.80;23.52;;;;;;;-139.48;100.00;61774.03;4998959;28;20056;-69
2022/04/30 03:52:12;;;;;;;44.65;25.00;;;;;;;-139.48;100.00;61774.03;4985548;28;20449;-69
2022/04/30 03:54:56;;;;;;;43.05;24.17;;;;;;;-139.48;100.00;61774.03;4999138;28;20125;-69
2022/04/30 03:57:41;;;;;;;43.92;25.30;;;;;;;-139.48;100.00;61774.03;4999502;28;20052;-69
2022/04/30 04:00:25;;;;;;;39.53;23.17;;;;;;;-139.48;100.00;61774.03;4999000;28;20057;-69
2022/04/30 04:03:09;;;;;;;39.30;24.88;;;;;;;-139.48;100.00;61774.03;5013868;28;20100;-69
2022/04/30 04:05:52;;;;;;;43.03;24.80;;;;;;;-139.48;100.00;61774.03;4999125;28;20048;-69
2022/04/30 04:08:36;;;;;;;39.95;25.40;;;;;;;-139.48;100.00;61774.03;4985415;28;20100;-69
2022/04/30 04:11:22;;;;;;;41.72;25.00;;;;;;;-139.48;100.00;61774.03;5014231;28;20052;-69
2022/04/30 04:20:17;;;;;;;42.75;26.85;;;;;;;-139.48;100.00;61774.03;5013159;28;20056;-69
2022/04/30 04:23:02;;;;;;;41.97;26.85;;;;;;;-139.48;100.00;61774.03;4999785;28;20474;-69
2022/04/30 04:26:01;;;;;;;40.08;26.75;;;;;;;-139.48;100.00;61774.03;4998814;28;20501;-69
2022/04/30 04:28:45;;;;;;;41.58;25.58;;;;;;;-139.48;100.00;61774.03;5001011;28;20123;-69
2022/04/30 04:31:29;;;;;;;38.05;24.52;;;;;;;-139.48;100.00;61774.03;4999138;28;20057;-69
2022/04/30 04:34:13;;;;;;;44.00;26.48;;;;;;;-139.48;100.00;61774.03;5013572;28;20524;-69
2022/04/30 04:36:57;;;;;;;51.35;31.20;;;;;;;-139.48;100.00;61774.03;4999076;28;20568;-69
2022/04/30 04:39:42;;;;;;;43.78;25.80;;;;;;;-139.48;100.00;61774.03;5013715;28;20053;-69
2022/04/30 04:42:26;;;;;;;46.10;28.42;;;;;;;-139.48;100.00;61774.03;5013887;28;20453;-69
2022/04/30 04:45:10;;;;;;;51.05;30.83;;;;;;;-139.48;100.00;61774.03;4999149;28;20049;-69
2022/04/30 04:47:54;;;;;;;50.38;30.33;;;;;;;-139.48;100.00;61774.03;4985169;28;20052;-69
2022/04/30 04:50:39;;;;;;;49.83;30.13;;;;;;;-139.48;100.00;61774.03;4998472;28;20057;-69
2022/04/30 04:53:22;;;;;;;56.65;29.83;;;;;;;-139.48;100.00;61774.03;4999017;28;20048;-69
2022/04/30 04:56:06;;;;;;;62.05;33.70;;;;;;;-139.48;100.00;61774.03;5013581;28;20104;-69
2022/04/30 04:58:50;;;;;;;53.08;30.80;;;;;;;-139.48;100.00;61774.03;4998371;28;20104;-69
2022/04/30 05:01:35;;;;;;;57.38;32.28;;;;;;;-139.48;100.00;61774.03;5013277;28;20111;-69
2022/04/30 05:04:20;;;;;;;53.38;31.23;;;;;;;-139.48;100.00;61774.03;5013193;28;20064;-70
2022/04/30 05:07:04;;;;;;;48.75;30.05;;;;;;;-139.48;100.00;61774.03;4984800;28;20053;-69
2022/04/30 05:09:48;;;;;;;55.40;32.55;;;;;;;-139.48;100.00;61774.03;4984643;28;20092;-70
2022/04/30 05:12:31;;;;;;;56.65;32.70;;;;;;;-139.48;100.00;61774.03;4998537;28;20092;-69
2022/04/30 05:15:15;;;;;;;58.13;33.72;;;;;;;-139.48;100.00;61774.03;4998436;28;20517;-70
2022/04/30 05:17:59;;;;;;;55.67;33.33;;;;;;;-139.48;100.00;61774.03;4998392;28;20512;-69
2022/04/30 05:20:43;;;;;;;50.92;30.85;;;;;;;-139.48;100.00;61774.03;4998169;28;20524;-69
2022/04/30 05:23:27;;;;;;;58.78;33.47;;;;;;;-139.48;100.00;61774.03;4984429;28;20513;-69
2022/04/30 05:26:11;;;;;;;59.03;31.88;;;;;;;-139.48;100.00;61774.03;4998454;28;20049;-69
2022/04/30 05:28:55;;;;;;;54.92;33.80;;;;;;;-139.48;100.00;61774.03;4998018;28;20138;-70
2022/04/30 05:31:39;;;;;;;54.45;32.20;;;;;;;-139.48;100.00;61774.03;5015446;28;20049;-70
2022/04/30 05:34:23;;;;;;;49.67;32.00;;;;;;;-139.48;100.00;61774.03;5001717;28;20049;-69
2022/04/30 05:37:06;;;;;;;53.72;29.77;;;;;;;-139.48;100.00;61774.03;4988413;28;20068;-70
2022/04/30 05:39:50;;;;;;;46.53;28.77;;;;;;;-139.48;100.00;61774.03;4987938;28;20144;-70
2022/04/30 05:42:34;;;;;;;56.65;31.48;;;;;;;-139.48;100.00;61774.03;5001817;28;20128;-69
2022/04/30 05:45:18;;;;;;;46.97;29.08;;;;;;;-139.48;100.00;61774.03;4988078;28;20053;-69
2022/04/30 05:48:02;;;;;;;37.35;25.70;;;;;;;-139.48;100.00;61774.03;5001457;28;20056;-69
2022/04/30 05:50:46;;;;;;;43.63;27.27;;;;;;;-139.48;100.00;61774.03;5001271;28;20470;-69
2022/04/30 05:53:30;;;;;;;41.72;26.83;;;;;;;-139.48;100.00;61774.03;5001910;28;20104;-69
2022/04/30 05:56:14;;;;;;;41.42;27.67;;;;;;;-139.48;100.00;61774.03;5001632;28;20053;-69
2022/04/30 05:58:57;;;;;;;46.45;27.13;;;;;;;-139.48;100.00;61774.03;5001249;28;20128;-69
2022/04/30 06:01:41;;;;;;;47.13;28.13;;;;;;;-139.48;100.00;61774.03;5001494;28;20494;-69
2022/04/30 06:04:25;;;;;;;47.30;30.70;;;;;;;-139.48;100.00;61774.03;5001392;28;20040;-69
2022/04/30 06:07:09;;;;;;;44.97;27.83;;;;;;;-139.48;100.00;61774.03;5001092;28;20417;-69
2022/04/30 06:09:53;;;;;;;51.10;30.23;;;;;;;-139.48;100.00;61774.03;5001305;28;20107;-69
2022/04/30 06:12:37;;;;;;;42.17;27.42;;;;;;;-139.48;100.00;61774.03;5016038;28;20126;-69
2022/04/30 06:15:21;;;;;;;39.88;27.08;;;;;;;-139.48;100.00;61774.03;5016245;28;20103;-69
2022/04/30 06:18:05;;;;;;;;;;;;;;;-139.48;100.00;61774.03;5001394;28;20092;-69
2022/04/30 06:20:49;;;;;;;39.80;26.20;;;;;;;-139.48;100.00;61774.03;4987479;28;19960;-69
2022/04/30 06:23:33;;;;;;;41.58;27.25;;;;;;;-139.48;100.00;61774.03;5016150;28;20061;-69
2022/04/30 06:26:16;;;;;;;42.28;27.27;;;;;;;-139.48;100.00;61774.03;5000823;28;20048;-69
2022/04/30 06:29:01;;;;;;;36.38;25.02;;;;;;;-139.48;100.00;61774.03;4987006;28;20513;-69
2022/04/30 06:31:45;;;;;;;38.83;25.73;;;;;;;-139.48;100.00;61774.03;5001097;28;20465;-69
2022/04/30 06:34:29;;;;;;;39.30;25.88;;;;;;;-139.48;100.00;61774.03;4987003;28;20053;-69
2022/04/30 06:37:13;;;;;;;33.05;23.45;;;;;;;-139.48;100.00;61774.03;5000960;28;20048;-69
2022/04/30 06:39:57;;;;;;;44.55;25.98;;;;;;;-139.48;100.00;61774.03;5015658;28;20124;-69
2022/04/30 06:42:43;;;;;;;42.70;24.92;;;;;;;-139.48;100.00;61774.03;4999838;28;20509;-69
2022/04/30 06:45:28;;;;;;;36.20;24.27;;;;;;;-139.48;100.00;61774.03;5001004;28;20402;-69
2022/04/30 06:48:11;;;;;;;36.78;23.48;;;;;;;-139.48;100.00;61774.03;5000713;28;20060;-69
2022/04/30 06:50:55;;;;;;;35.42;23.20;;;;;;;-139.48;100.00;61774.03;5014183;28;20053;-69
2022/04/30 06:59:45;;;;;;;36.72;23.05;;;;;;;-139.48;100.00;61774.03;5014328;28;20461;-69
2022/04/30 07:02:31;;;;;;;38.00;25.25;;;;;;;-139.48;100.00;61774.03;5014096;28;20556;-69
2022/04/30 07:05:15;;;;;;;30.58;23.08;;;;;;;-139.48;100.00;61774.03;5014028;28;20559;-69
2022/04/30 07:07:59;;;;;;;35.33;24.17;;;;;;;-139.48;100.00;61774.03;4999417;28;20244;-69
2022/04/30 07:10:43;;;;;;;36.85;23.63;;;;;;;-139.48;100.00;61774.03;4999140;28;20096;-69
2022/04/30 07:13:27;;;;;;;32.42;22.20;;;;;;;-139.48;100.00;61774.03;4999309;28;20076;-69
2022/04/30 07:16:10;;;;;;;32.15;21.77;;;;;;;-139.48;100.00;61774.03;4999468;28;20092;-69
2022/04/30 07:18:54;;;;;;;31.70;21.38;;;;;;;-139.48;100.00;61774.03;5013784;28;20572;-69
2022/04/30 07:21:38;;;;;;;37.42;23.42;;;;;;;-139.48;100.00;61774.03;4998948;28;20095;-69
2022/04/30 07:24:22;;;;;;;28.00;20.52;;;;;;;-139.48;100.00;61774.03;4985602;28;20099;-69
2022/04/30 07:27:07;;;;;;;30.60;21.60;;;;;;;-139.48;100.00;61774.03;4999001;28;20636;-69
2022/04/30 07:29:51;;;;;;;28.40;20.25;;;;;;;-139.48;100.00;61774.03;4999148;28;20045;-69
2022/04/30 07:32:35;;;;;;;30.40;21.13;;;;;;;-139.48;100.00;61774.03;5013963;28;20065;-69
2022/04/30 07:35:19;;;;;;;35.55;21.45;;;;;;;-139.48;100.00;61774.03;4998689;28;20513;-69
2022/04/30 07:38:03;;;;;;;28.17;19.98;;;;;;;-139.48;100.00;61774.03;5013998;28;20410;-69
2022/04/30 07:40:47;;;;;;;31.92;22.15;;;;;;;-139.48;100.00;61774.03;4998639;28;20438;-69
2022/04/30 07:43:31;;;;;;;34.22;21.83;;;;;;;-139.48;100.00;61774.03;4998911;28;20431;-69
2022/04/30 07:46:15;;;;;;;31.17;22.50;;;;;;;-139.48;100.00;61774.03;4999092;28;20045;-69
2022/04/30 07:49:00;;;;;;;30.27;20.40;;;;;;;-139.48;100.00;61774.03;5000867;22;1059718;-70
2022/04/30 07:51:53;;;;;;;;;;;;;;;-139.48;100.00;61774.03;4994080;28;20085;-70
2022/04/30 07:54:36;;;;;;;28.65;20.75;;;;;;;-139.48;100.00;61774.03;4993437;28;20388;-70
2022/04/30 07:57:20;;;;;;;27.45;20.98;;;;;;;-139.48;100.00;61774.03;4979575;28;20096;-70
2022/04/30 08:00:06;;;;;;;30.40;20.95;;;;;;;-139.48;100.00;61774.03;4979724;28;20096;-70
2022/04/30 08:02:50;;;;;;;29.23;20.33;;;;;;;-139.48;100.00;61774.03;4979866;28;20057;-70
2022/04/30 08:05:34;;;;;;;26.92;21.20;;;;;;;-139.48;100.00;61774.03;4979727;28;20049;-70
2022/04/30 08:08:18;;;;;;;27.77;20.33;;;;;;;-139.48;100.00;61774.03;4979744;28;20108;-70
2022/04/30 08:11:03;;;;;;;26.98;19.58;;;;;;;-139.48;100.00;61774.03;4965616;28;20049;-70
2022/04/30 08:13:47;;;;;;;26.05;19.92;;;;;;;-139.48;100.00;61774.03;4979517;28;20095;-70
2022/04/30 08:16:31;;;;;;;29.35;20.13;;;;;;;-139.48;100.00;61774.03;4994345;28;20049;-70
2022/04/30 08:19:15;;;;;;;26.25;20.48;;;;;;;-139.48;100.00;61774.03;4979207;28;20125;-70
2022/04/30 08:21:59;;;;;;;29.05;20.40;;;;;;;-139.48;100.00;61774.03;4993950;28;20130;-70
2022/04/30 08:24:43;;;;;;;29.30;20.02;;;;;;;-139.48;100.00;61774.03;4993932;28;20505;-70
2022/04/30 08:27:27;;;;;;;37.00;20.77;;;;;;;-139.48;100.00;61774.03;4993929;28;20096;-70
2022/04/30 08:30:11;;;;;;;29.00;19.40;;;;;;;-139.48;100.00;61774.03;4979108;28;20049;-70
2022/04/30 08:32:55;;;;;;;26.23;19.33;;;;;;;-139.48;100.00;61774.03;4979402;28;20410;-70
2022/04/30 08:35:39;;;;;;;28.98;19.58;;;;;;;-139.48;100.00;61774.03;4965416;28;20573;-70
2022/04/30 08:38:23;;;;;;;26.52;18.20;;;;;;;-139.48;100.00;61774.03;4979294;28;20089;-70
2022/04/30 08:41:10;;;;;;;26.30;18.75;;;;;;;-139.48;100.00;61774.03;4978995;28;20049;-70
2022/04/30 08:43:54;;;;;;;26.77;19.48;;;;;;;-139.48;100.00;61774.03;4979469;28;20517;-70
2022/04/30 08:46:39;;;;;;;41.28;27.05;;;;;;;-139.48;100.00;61774.03;4994251;28;20061;-71
2022/04/30 08:49:22;;;;;;;35.38;23.08;;;;;;;-139.48;100.00;61774.03;4993484;28;20462;-69
2022/04/30 08:52:07;;;;;;;27.48;20.65;;;;;;;-139.48;100.00;61774.03;4993811;28;20049;-70
2022/04/30 08:54:51;;;;;;;44.92;30.67;;;;;;;-139.48;100.00;61774.03;4993952;28;20046;-70
2022/04/30 08:57:34;;;;;;;32.15;23.50;;;;;;;-139.48;100.00;61774.03;4979138;28;20129;-70
2022/04/30 09:00:19;;;;;;;24.88;18.77;;;;;;;-139.48;100.00;61774.03;4965141;28;20522;-70
2022/04/30 09:03:03;;;;;;;28.13;19.90;;;;;;;-139.48;100.00;61774.03;4978923;28;20053;-70
2022/04/30 09:05:50;;;;;;;26.10;18.63;;;;;;;-139.48;100.00;61774.03;4995057;28;20521;-70
2022/04/30 09:08:35;;;;;;;28.73;20.17;;;;;;;-139.48;100.00;61774.03;4997795;28;20101;-70
2022/04/30 09:11:26;;;;;;;27.65;19.10;;;;;;;-139.48;100.00;61774.03;4982833;28;20053;-70
2022/04/30 09:14:10;;;;;;;24.80;18.55;;;;;;;-139.48;100.00;61774.03;4982729;28;20109;-70
2022/04/30 09:17:02;;;;;;;29.17;19.33;;;;;;;-139.48;100.00;61774.03;4982799;28;20057;-70
2022/04/30 09:19:53;;;;;;;25.55;18.35;;;;;;;-139.48;100.00;61774.03;4968816;28;20102;-70
2022/04/30 09:22:38;;;;;;;29.40;19.98;;;;;;;-139.48;100.00;61774.03;4997481;28;20081;-70
2022/04/30 09:25:22;;;;;;;29.75;20.55;;;;;;;-139.48;100.00;61774.03;4982628;28;20498;-70
2022/04/30 09:28:06;;;;;;;29.15;20.42;;;;;;;-139.48;100.00;61774.03;4997345;28;20081;-71
2022/04/30 09:30:50;;;;;;;27.33;19.58;;;;;;;-139.48;100.00;61774.03;4982197;28;20081;-70
2022/04/30 09:33:36;;;;;;;34.85;19.92;;;;;;;-139.48;100.00;61774.03;4997511;28;20174;-70
2022/04/30 09:39:22;;;;;;;29.38;20.42;;;;;;;-139.48;100.00;61774.03;4984893;28;20106;-70
2022/04/30 09:42:06;;;;;;;25.13;19.40;;;;;;;-139.48;100.00;61774.03;4997136;28;20456;-69
2022/04/30 09:44:50;;;;;;;30.50;19.75;;;;;;;-139.48;100.00;61774.03;4968704;28;20093;-70
2022/04/30 09:47:34;;;;;;;30.52;20.40;;;;;;;-139.48;100.00;61774.03;4996851;28;20053;-70
2022/04/30 09:56:37;;;;;;;31.70;20.08;;;;;;;-139.48;100.00;61774.03;4984533;28;20045;-70
2022/04/30 09:59:22;;;;;;;30.02;20.10;;;;;;;-139.48;100.00;61774.03;4981967;28;20128;-70
2022/04/30 10:02:08;;;;;;;32.90;24.52;;;;;;;-139.48;100.00;61774.03;4981945;28;20044;-71
2022/04/30 10:04:52;;;;;;;37.55;27.45;;;;;;;-139.48;100.00;61774.03;4996690;28;20049;-70
2022/04/30 10:07:36;;;;;;;24.95;18.33;;;;;;;-139.48;100.00;61774.03;4968019;28;20525;-70
2022/04/30 10:10:51;;;;;;;38.92;28.33;;;;;;;-139.48;100.00;61774.03;4981791;28;20052;-71
2022/04/30 10:13:47;;;;;;;25.92;18.73;;;;;;;-139.48;100.00;61774.03;4992111;28;20517;-71
2022/04/30 10:16:32;;;;;;;31.08;19.58;;;;;;;-139.48;100.00;61774.03;4996249;28;20598;-70
2022/04/30 10:19:20;;;;;;;27.88;20.10;;;;;;;-139.48;100.00;61774.03;4995894;28;20100;-71
2022/04/30 10:22:13;;;;;;;31.80;22.70;;;;;;;-139.48;100.00;61774.03;4981662;28;20053;-70
2022/04/30 10:24:58;;;;;;;26.70;19.67;;;;;;;-139.48;100.00;61774.03;4981603;28;20122;-71
2022/04/30 10:27:44;;;;;;;26.67;18.63;;;;;;;-139.48;100.00;61774.03;4981549;28;20161;-71
2022/04/30 10:30:28;;;;;;;27.27;19.85;;;;;;;-139.48;100.00;61774.03;4981471;28;20057;-70
2022/04/30 10:33:12;;;;;;;26.13;19.13;;;;;;;-139.48;100.00;61774.03;4981469;28;20514;-71
2022/04/30 10:36:07;;;;;;;26.90;19.90;;;;;;;-139.48;100.00;61774.03;4981114;28;20557;-71
2022/04/30 10:38:59;;;;;;;28.30;19.13;;;;;;;-139.48;100.00;61774.03;4981019;28;20088;-70
2022/04/30 10:41:44;;;;;;;29.10;19.00;;;;;;;-139.48;100.00;61774.03;4981352;28;20052;-71
2022/04/30 10:44:32;;;;;;;24.88;18.40;;;;;;;-139.48;100.00;61774.03;4995709;28;20533;-71
2022/04/30 10:47:17;;;;;;;24.77;16.77;;;;;;;-139.48;100.00;61774.03;4995633;28;20049;-70
2022/04/30 10:50:01;;;;;;;26.70;17.35;;;;;;;-139.48;100.00;61774.03;4995526;28;20057;-70
2022/04/30 10:52:49;;;;;;;24.35;16.52;;;;;;;-139.48;100.00;61774.03;4981131;28;20041;-70
2022/04/30 10:55:34;;;;;;;24.08;15.77;;;;;;;-139.48;100.00;61774.03;4980635;28;20120;-71
2022/04/30 10:58:25;;;;;;;20.52;14.85;;;;;;;-139.48;100.00;61774.03;4981070;28;20513;-70
2022/04/30 11:01:19;;;;;;;26.33;15.13;;;;;;;-139.48;100.00;61774.03;4980565;28;20064;-70
2022/04/30 11:04:03;;;;;;;19.02;12.98;;;;;;;-139.48;100.00;61774.03;4966910;28;20053;-70
2022/04/30 11:06:52;;;;;;;16.00;13.23;;;;;;;-139.48;100.00;61774.03;4980806;28;20096;-71
2022/04/30 11:09:43;;;;;;;16.92;13.10;;;;;;;-139.48;100.00;61774.03;4980913;28;20045;-70
2022/04/30 11:12:32;;;;;;;17.73;13.02;;;;;;;-139.48;100.00;61774.03;4980655;28;20097;-70
2022/04/30 11:15:16;;;;;;;20.90;14.70;;;;;;;-139.48;100.00;61774.03;4967432;28;20133;-70
2022/04/30 11:18:00;;;;;;;17.38;13.65;;;;;;;-139.48;100.00;61774.03;4995312;28;20053;-70
2022/04/30 11:20:44;;;;;;;25.67;14.50;;;;;;;-139.48;100.00;61774.03;4980756;28;20510;-70
2022/04/30 11:23:28;;;;;;;17.67;13.50;;;;;;;-139.48;100.00;61774.03;4994961;28;20088;-70
2022/04/30 11:26:17;;;;;;;17.83;13.65;;;;;;;-139.48;100.00;61774.03;4966822;28;20414;-71
2022/04/30 11:29:01;;;;;;;18.88;14.63;;;;;;;-139.48;100.00;61774.03;4979836;28;20105;-71
2022/04/30 11:31:50;;;;;;;32.78;20.50;;;;;;;-139.48;100.00;61774.03;4995265;28;20048;-71
2022/04/30 11:34:38;;;;;;;20.75;15.90;;;;;;;-139.48;100.00;61774.03;4980027;28;20162;-71
2022/04/30 11:37:23;;;;;;;23.05;15.25;;;;;;;-139.48;100.00;61774.03;4980204;28;20508;-70
2022/04/30 11:40:07;;;;;;;19.55;15.23;;;;;;;-139.48;100.00;61774.03;4966464;28;20051;-71
2022/04/30 11:42:56;;;;;;;24.63;16.02;;;;;;;-139.48;100.00;61774.03;4994914;28;20045;-71
2022/04/30 11:45:40;;;;;;;21.83;16.13;;;;;;;-139.48;100.00;61774.03;4966483;28;20095;-70
2022/04/30 11:48:25;;;;;;;20.38;15.45;;;;;;;-139.48;100.00;61774.03;4994801;28;20116;-71
2022/04/30 11:51:09;;;;;;;22.40;15.30;;;;;;;-139.48;100.00;61774.03;4979982;28;20113;-71
2022/04/30 11:53:53;;;;;;;16.95;13.50;;;;;;;-139.48;100.00;61774.03;4966269;28;20049;-70
2022/04/30 11:56:38;;;;;;;22.40;15.02;;;;;;;-139.48;100.00;61774.03;4979670;28;20417;-70
2022/04/30 11:59:34;;;;;;;35.38;24.48;;;;;;;-139.48;100.00;61774.03;4979481;28;20083;-71
2022/04/30 12:02:20;;;;;;;18.73;14.63;;;;;;;-139.48;100.00;61774.03;4994559;28;20177;-70
2022/04/30 12:05:04;;;;;;;18.88;14.68;;;;;;;-139.48;100.00;61774.03;4979722;28;20041;-71
2022/04/30 12:07:48;;;;;;;18.15;13.90;;;;;;;-139.48;100.00;61774.03;4979699;28;20049;-71
2022/04/30 12:10:32;;;;;;;17.73;14.00;;;;;;;-139.48;100.00;61774.03;4979357;28;20053;-70
2022/04/30 12:13:23;;;;;;;23.80;15.50;;;;;;;-139.48;100.00;61774.03;4994194;28;20085;-71
2022/04/30 12:16:07;;;;;;;18.70;14.25;;;;;;;-139.48;100.00;61774.03;4979400;28;20120;-71
2022/04/30 12:24:58;;;;;;;18.98;14.55;;;;;;;-139.48;100.00;61774.03;4994004;28;20049;-70
2022/04/30 12:27:58;;;;;;;19.35;14.70;;;;;;;-139.48;100.00;61774.03;4979507;28;20140;-71
2022/04/30 12:30:53;;;;;;;17.63;12.90;;;;;;;-139.48;100.00;61774.03;4979307;28;20061;-71
2022/04/30 12:33:48;;;;;;;16.25;12.13;;;;;;;-139.48;100.00;61774.03;4979369;28;20050;-70
2022/04/30 12:36:32;;;;;;;17.58;12.57;;;;;;;-139.48;100.00;61774.03;4965434;28;20109;-71
2022/04/30 12:39:16;;;;;;;;;;;;;;;-139.48;100.00;61774.03;4994597;28;20049;-71
2022/04/30 12:42:00;;;;;;;17.00;13.25;;;;;;;-139.48;100.00;61774.03;4964862;28;19920;-71
2022/04/30 12:44:44;;;;;;;;;;;;;;;-139.48;100.00;61774.03;4994472;28;20544;-71
2022/04/30 12:47:28;;;;;;;17.97;13.83;;;;;;;-139.48;100.00;61774.03;4993720;28;19967;-71
2022/04/30 12:50:12;;;;;;;;;;;;;;;-139.48;100.00;61774.03;4993950;28;20340;-71
2022/04/30 12:52:56;;;;;;;15.20;12.95;;;;;;;-139.48;100.00;61774.03;4978939;28;19920;-70
2022/04/30 12:55:41;;;;;;;18.92;13.57;;;;;;;-139.48;100.00;61774.03;4993855;28;20113;-70